createdAt,value
2022-08-12T00:08:46.952Z,94.49
2022-08-12T00:23:47.562Z,97.58
2022-08-12T00:38:48.204Z,99.39
2022-08-12T00:53:49.246Z,99.99
2022-08-12T01:08:49.886Z,99.99
2022-08-12T01:23:50.474Z,99.99
2022-08-12T01:38:50.603Z,99.99
2022-08-12T01:53:51.680Z,99.99
2022-08-12T02:08:52.150Z,99.99
2022-08-12T02:23:52.858Z,99.99
2022-08-12T02:38:52.978Z,99.99
2022-08-12T02:54:03.284Z,99.99
2022-08-12T03:09:00.720Z,99.99
2022-08-12T03:24:01.863Z,99.99
2022-08-12T03:39:02.012Z,99.99
2022-08-12T03:54:02.078Z,98.68
2022-08-12T04:09:02.212Z,96.59
2022-08-12T04:24:02.413Z,95.21
2022-08-12T04:39:03.436Z,95.23
2022-08-12T04:54:03.114Z,99.63
2022-08-12T05:09:03.643Z,99.99
2022-08-12T05:24:08.752Z,94.54
2022-08-12T05:39:08.821Z,84.69
2022-08-12T05:54:08.955Z,72.66
2022-08-12T06:09:09.037Z,68.16
2022-08-12T06:24:10.119Z,65.71
2022-08-12T06:39:14.747Z,60.56
2022-08-12T06:54:15.327Z,60.24
2022-08-12T07:10:05.372Z,55.28
2022-08-12T07:24:25.523Z,52.41
2022-08-12T07:39:25.782Z,47.78
2022-08-12T07:54:26.737Z,46.43
2022-08-12T08:09:26.805Z,45.23
2022-08-12T08:24:26.434Z,44.17
2022-08-12T08:39:27.035Z,43.43
2022-08-12T08:54:28.116Z,44.49
2022-08-12T09:09:33.999Z,43.76
2022-08-12T09:24:33.290Z,41.00
2022-08-12T09:40:03.473Z,40.17
2022-08-12T09:54:43.061Z,38.57
2022-08-12T10:09:58.679Z,37.88
2022-08-12T10:24:53.319Z,40.39
2022-08-12T10:40:01.627Z,35.60
2022-08-12T10:54:59.441Z,36.85
2022-08-12T11:10:01.737Z,36.55
2022-08-12T11:25:02.649Z,33.22
2022-08-12T11:55:12.932Z,34.45
2022-08-12T12:10:16.477Z,34.40
2022-08-12T12:25:19.760Z,36.60
2022-08-12T12:40:21.479Z,35.61
2022-08-12T12:55:23.410Z,36.19
2022-08-12T13:10:30.796Z,34.39
2022-08-12T13:25:35.968Z,35.39
2022-08-12T13:40:37.632Z,36.98
2022-08-12T13:55:41.311Z,37.39
2022-08-12T14:10:50.484Z,39.62
2022-08-12T14:25:49.149Z,39.70
2022-08-12T14:40:52.804Z,40.88
2022-08-12T15:10:57.964Z,39.70
2022-08-12T15:26:02.963Z,40.58
2022-08-12T15:41:03.187Z,39.01
2022-08-12T15:56:03.265Z,41.55
2022-08-12T16:11:07.315Z,40.55
2022-08-12T16:26:14.459Z,43.41
2022-08-12T16:41:13.530Z,41.47
2022-08-12T16:56:14.629Z,43.10
2022-08-12T17:11:17.923Z,44.57
2022-08-12T17:26:18.808Z,46.00
2022-08-12T17:41:57.192Z,47.13
2022-08-12T17:56:31.874Z,47.56
2022-08-12T18:12:04.139Z,49.49
2022-08-12T18:26:38.223Z,50.95
2022-08-12T18:41:38.838Z,57.11
2022-08-12T18:56:39.953Z,59.53
2022-08-12T19:11:40.051Z,62.61
2022-08-12T19:26:45.072Z,64.43
2022-08-12T19:42:01.051Z,67.29
2022-08-12T19:56:52.288Z,67.89
2022-08-12T20:12:14.109Z,70.50
2022-08-12T20:27:00.016Z,73.57
2022-08-12T20:42:03.593Z,73.41
2022-08-12T20:57:09.744Z,71.70
2022-08-12T21:12:30.975Z,71.50
2022-08-12T21:27:17.156Z,73.27
2022-08-12T21:42:18.006Z,74.18
2022-08-12T21:57:18.120Z,76.12
2022-08-12T22:12:20.467Z,76.06
2022-08-12T22:27:32.289Z,77.57
2022-08-12T22:42:28.711Z,76.80
2022-08-12T22:57:53.426Z,77.40
2022-08-12T23:12:40.938Z,77.44
2022-08-12T23:27:51.600Z,78.89
2022-08-12T23:42:50.555Z,80.74
2022-08-12T23:58:17.900Z,81.59
